Time;durP1;ratioP1;P1;durP2;ratioP2;P2;SDS_P1;SDS_P2;PMS_P1;PMS_P2;Temp;Humidity;BMP_temperature;BMP_pressure;BME280_temperature;BME280_humidity;BME280_pressure;Samples;Min_cycle;Max_cycle;Signal;HPM_P1;HPM_P2
2022/04/16 00:02:12;;;;;;;19.17;16.17;;;5.70;70.00;;;;;;5060523;28;20462;-59
2022/04/16 00:04:45;;;;;;;25.63;17.60;;;5.60;1.00;;;;;;5069622;28;20939;-59
2022/04/16 00:07:12;;;;;;;18.50;16.27;;;5.40;99.90;;;;;;5080735;28;20461;-59
2022/04/16 00:09:39;;;;;;;22.07;17.70;;;5.40;1.00;;;;;;5079805;28;20496;-59
2022/04/16 00:12:10;;;;;;;18.47;16.57;;;5.50;1.00;;;;;;5079814;28;20465;-59
2022/04/16 00:14:38;;;;;;;18.30;15.67;;;5.40;1.00;;;;;;5079938;28;20457;-59
2022/04/16 00:17:32;;;;;;;19.50;16.17;;;5.40;1.00;;;;;;5080109;28;20503;-59
2022/04/16 00:20:02;;;;;;;23.73;18.10;;;5.30;1.00;;;;;;5078243;28;20507;-58
2022/04/16 00:22:41;;;;;;;23.17;18.90;;;5.30;75.10;;;;;;5078915;28;20492;-60
2022/04/16 00:25:13;;;;;;;23.53;19.17;;;5.30;99.90;;;;;;5078756;28;20457;-59
2022/04/16 00:27:42;;;;;;;25.43;19.10;;;5.40;99.90;;;;;;5080302;28;20816;-59
2022/04/16 00:30:10;;;;;;;19.23;17.23;;;5.30;99.90;;;;;;5079806;28;20916;-59
2022/04/16 00:32:54;;;;;;;24.17;18.70;;;5.30;99.90;;;;;;5078840;28;20458;-60
2022/04/16 00:35:21;;;;;;;19.70;17.53;;;5.20;99.90;;;;;;5079699;28;20511;-59
2022/04/16 00:38:06;;;;;;;18.10;16.27;;;5.20;99.90;;;;;;5079266;28;20489;-59
2022/04/16 00:40:36;;;;;;;20.83;17.83;;;5.00;99.90;;;;;;5079633;28;20840;-57
2022/04/16 00:43:06;;;;;;;21.30;17.67;;;5.00;1.00;;;;;;5078750;28;20538;-59
2022/04/16 00:45:33;;;;;;;20.23;17.40;;;4.90;99.90;;;;;;5079427;28;20889;-58
2022/04/16 00:48:07;;;;;;;19.70;16.73;;;5.00;1.00;;;;;;5078727;28;20510;-58
2022/04/16 00:50:34;;;;;;;21.27;16.60;;;4.90;99.90;;;;;;5079311;28;20469;-57
2022/04/16 00:53:03;;;;;;;18.73;16.80;;;4.90;99.90;;;;;;5078717;28;20457;-60
2022/04/16 00:55:31;;;;;;;23.90;18.30;;;4.80;1.00;;;;;;5079511;28;20563;-58
2022/04/16 00:57:58;;;;;;;21.27;17.63;;;4.70;1.00;;;;;;5079021;28;20465;-58
2022/04/16 01:00:28;;;;;;;19.57;16.00;;;4.70;99.90;;;;;;5079420;28;20567;-58
2022/04/16 01:02:56;;;;;;;20.13;16.80;;;4.70;1.00;;;;;;5078143;28;20485;-58
2022/04/16 01:05:27;;;;;;;20.83;17.00;;;4.70;1.00;;;;;;5079113;28;20518;-58
2022/04/16 01:07:56;;;;;;;17.60;15.70;;;4.50;99.90;;;;;;5079426;28;20535;-58
2022/04/16 01:10:28;;;;;;;18.40;16.50;;;4.40;99.90;;;;;;5078980;28;20461;-58
2022/04/16 01:12:59;;;;;;;25.43;17.33;;;4.30;1.00;;;;;;5078631;28;20748;-58
2022/04/16 01:15:32;;;;;;;19.43;17.20;;;4.40;81.30;;;;;;5079098;28;20465;-59
2022/04/16 01:18:02;;;;;;;22.13;18.43;;;4.40;1.00;;;;;;5078845;28;20932;-59
2022/04/16 01:20:35;;;;;;;21.77;18.60;;;4.40;1.00;;;;;;5078746;28;20519;-59
2022/04/16 01:23:09;;;;;;;23.53;18.70;;;4.40;99.90;;;;;;5077769;28;20542;-59
2022/04/16 01:25:39;;;;;;;18.57;16.60;;;4.40;1.00;;;;;;5078499;28;20488;-58
2022/04/16 01:28:13;;;;;;;22.80;20.03;;;4.40;1.00;;;;;;5058877;28;20469;-58
2022/04/16 01:30:40;;;;;;;23.43;18.50;;;4.30;1.00;;;;;;5058914;28;20462;-58
2022/04/16 01:33:16;;;;;;;20.17;17.27;;;4.30;99.90;;;;;;5058377;28;20968;-58
2022/04/16 01:35:51;;;;;;;19.37;17.30;;;4.30;99.90;;;;;;5077600;28;20551;-58
2022/04/16 01:38:22;;;;;;;23.30;18.13;;;4.30;99.90;;;;;;5077917;28;20517;-58
2022/04/16 01:41:01;;;;;;;18.93;16.93;;;4.40;99.90;;;;;;5077807;28;20449;-58
2022/04/16 01:43:29;;;;;;;21.20;17.03;;;4.30;99.90;;;;;;5078277;28;20532;-58
2022/04/16 01:45:59;;;;;;;22.60;16.87;;;4.30;99.90;;;;;;5078003;28;20501;-59
2022/04/16 01:48:31;;;;;;;20.83;16.30;;;4.30;99.90;;;;;;5078174;28;20896;-57
2022/04/16 01:51:07;;;;;;;20.03;17.23;;;4.30;99.90;;;;;;5078062;28;20889;-59
2022/04/16 01:53:38;;;;;;;22.37;16.93;;;4.30;99.90;;;;;;5078294;28;20497;-58
2022/04/16 01:56:05;;;;;;;20.33;16.23;;;4.30;99.90;;;;;;5077541;28;20461;-59
2022/04/16 01:58:36;;;;;;;18.03;16.10;;;4.20;99.90;;;;;;5077723;28;20530;-59
2022/04/16 02:01:05;;;;;;;19.67;16.80;;;4.10;99.90;;;;;;5077712;28;20469;-59
2022/04/16 02:03:33;;;;;;;20.37;16.40;;;4.20;99.90;;;;;;5078101;28;20489;-59
2022/04/16 02:06:00;;;;;;;19.80;15.73;;;4.10;99.90;;;;;;5077531;28;20514;-59
2022/04/16 02:08:30;;;;;;;19.80;16.70;;;4.10;99.90;;;;;;5077874;28;20465;-59
2022/04/16 02:11:04;;;;;;;19.27;16.37;;;4.10;99.90;;;;;;5077131;28;20492;-60
2022/04/16 02:13:31;;;;;;;18.90;16.93;;;4.00;99.90;;;;;;5077317;28;20461;-59
2022/04/16 02:16:03;;;;;;;21.83;16.67;;;4.00;99.90;;;;;;5076488;28;20527;-60
2022/04/16 02:18:30;;;;;;;19.60;16.70;;;4.00;99.90;;;;;;5077490;28;20894;-58
2022/04/16 02:20:57;;;;;;;19.73;16.90;;;4.00;99.90;;;;;;5077130;28;20457;-59
2022/04/16 02:23:26;;;;;;;16.83;15.03;;;4.00;99.90;;;;;;5077312;28;20804;-59
2022/04/16 02:25:55;;;;;;;19.87;16.17;;;3.90;99.90;;;;;;5077316;28;20908;-57
2022/04/16 02:28:26;;;;;;;19.63;16.53;;;3.90;99.90;;;;;;5077145;28;20525;-59
2022/04/16 02:30:55;;;;;;;20.70;16.37;;;3.90;99.90;;;;;;5077338;28;20461;-60
2022/04/16 02:33:22;;;;;;;18.17;16.23;;;3.80;99.90;;;;;;5077456;28;20515;-60
2022/04/16 02:35:51;;;;;;;18.23;16.33;;;3.80;99.90;;;;;;5077620;28;20465;-59
2022/04/16 02:38:18;;;;;;;18.40;15.93;;;3.80;99.90;;;;;;5075631;28;20488;-60
2022/04/16 02:40:48;;;;;;;18.90;16.90;;;3.80;59.80;;;;;;5077529;28;20465;-60
2022/04/16 02:43:19;;;;;;;20.87;17.07;;;3.80;5.00;;;;;;5077398;28;20566;-60
2022/04/16 02:48:29;;;;;;;20.27;15.40;;;3.70;1.00;;;;;;5045206;28;20445;-57
2022/04/16 02:50:58;;;;;;;18.97;15.10;;;3.70;1.00;;;;;;5063787;28;20461;-60
2022/04/16 02:53:26;;;;;;;18.33;15.17;;;3.60;1.00;;;;;;5076490;28;20528;-59
2022/04/16 02:55:54;;;;;;;19.93;15.20;;;3.60;17.70;;;;;;5077275;28;20534;-60
2022/04/16 02:58:21;;;;;;;19.27;15.80;;;3.60;74.90;;;;;;5076548;28;20969;-59
2022/04/16 03:00:50;;;;;;;20.20;16.37;;;3.50;21.90;;;;;;5077389;28;20539;-59
2022/04/16 03:03:22;;;;;;;20.03;16.10;;;3.50;42.80;;;;;;5077146;28;20836;-59
2022/04/16 03:05:56;;;;;;;19.37;14.77;;;3.50;62.10;;;;;;5077538;28;20568;-58
2022/04/16 03:08:24;;;;;;;19.63;14.80;;;3.40;1.00;;;;;;5075305;28;20570;-60
2022/04/16 03:10:54;;;;;;;19.47;15.93;;;3.30;99.90;;;;;;5076594;28;20781;-59
2022/04/16 03:13:21;;;;;;;22.40;16.70;;;3.40;99.90;;;;;;5077212;28;20925;-59
2022/04/16 03:18:37;;;;;;;21.53;17.57;;;3.40;99.90;;;;;;5076021;28;20453;-59
2022/04/16 03:21:11;;;;;;;20.40;17.60;;;3.30;99.90;;;;;;5077191;28;20774;-60
2022/04/16 03:23:38;;;;;;;20.57;17.30;;;3.30;99.90;;;;;;5076700;28;20492;-58
2022/04/16 03:26:05;;;;;;;24.30;17.97;;;3.30;1.00;;;;;;5077225;28;20821;-59
2022/04/16 03:28:33;;;;;;;19.17;16.17;;;3.30;1.00;;;;;;5075997;28;20461;-60
2022/04/16 03:31:16;;;;;;;21.73;17.83;;;3.30;1.00;;;;;;5077122;28;20877;-60
2022/04/16 03:33:46;;;;;;;24.20;19.60;;;3.30;99.90;;;;;;5076717;28;20491;-59
2022/04/16 03:36:13;;;;;;;21.37;18.10;;;3.30;99.90;;;;;;5077360;28;20465;-60
2022/04/16 03:38:43;;;;;;;24.13;17.67;;;3.20;99.90;;;;;;5076000;28;20539;-59
2022/04/16 03:41:11;;;;;;;26.57;19.20;;;3.20;99.90;;;;;;5076825;28;20461;-59
2022/04/16 03:43:46;;;;;;;21.77;18.07;;;3.20;99.90;;;;;;5076591;28;20803;-58
2022/04/16 03:46:18;;;;;;;21.93;16.67;;;3.20;99.90;;;;;;5076549;28;20472;-59
2022/04/16 03:48:48;;;;;;;19.93;17.60;;;3.10;65.20;;;;;;5076089;28;20466;-59
2022/04/16 03:51:18;;;;;;;22.23;17.10;;;3.10;1.00;;;;;;5076936;28;20465;-59
2022/04/16 03:53:45;;;;;;;22.77;17.03;;;3.00;1.00;;;;;;5076662;28;20488;-59
2022/04/16 04:01:42;;;;;;;23.77;18.40;;;2.90;1.00;;;;;;5022903;28;20749;-59
2022/04/16 04:04:12;;;;;;;19.83;16.80;;;3.00;99.90;;;;;;5063882;28;20461;-59
2022/04/16 04:06:43;;;;;;;21.33;16.60;;;2.90;99.90;;;;;;5080540;28;20484;-59
2022/04/16 04:09:12;;;;;;;24.80;17.77;;;2.90;1.00;;;;;;5080169;28;20465;-59
2022/04/16 04:11:42;;;;;;;20.03;15.97;;;2.90;15.80;;;;;;5078405;28;20460;-58
2022/04/16 04:14:11;;;;;;;20.90;16.23;;;2.90;99.90;;;;;;5080048;28;20496;-59
2022/04/16 04:16:38;;;;;;;24.93;17.40;;;2.80;1.00;;;;;;5080122;28;20526;-59
2022/04/16 04:19:06;;;;;;;21.20;16.90;;;2.90;25.60;;;;;;5079963;28;20443;-59
2022/04/16 04:21:36;;;;;;;21.93;17.90;;;2.90;12.60;;;;;;5079145;28;20520;-59
2022/04/16 04:24:06;;;;;;;23.10;17.83;;;2.90;1.00;;;;;;5080168;28;20813;-59
2022/04/16 04:26:36;;;;;;;29.70;19.53;;;2.90;65.40;;;;;;5079837;28;20461;-60
2022/04/16 04:29:11;;;;;;;21.07;16.87;;;2.80;99.90;;;;;;5079929;28;20469;-59
2022/04/16 04:31:38;;;;;;;24.50;18.53;;;2.90;99.90;;;;;;5079469;28;20465;-59
2022/04/16 04:34:11;;;;;;;21.17;17.80;;;2.90;99.90;;;;;;5079933;28;20492;-59
2022/04/16 04:36:43;;;;;;;22.53;18.30;;;2.90;99.90;;;;;;5078930;28;20802;-59
2022/04/16 04:39:16;;;;;;;20.73;16.70;;;2.80;99.90;;;;;;5079850;28;20461;-59
2022/04/16 04:41:43;;;;;;;23.20;18.27;;;2.80;99.90;;;;;;5078907;28;20553;-59
2022/04/16 04:44:11;;;;;;;27.07;19.83;;;2.80;99.90;;;;;;5079829;28;20492;-59
2022/04/16 04:46:38;;;;;;;22.50;19.27;;;2.80;89.40;;;;;;5078897;28;20481;-57
2022/04/16 04:49:08;;;;;;;23.13;18.97;;;2.80;83.50;;;;;;5079488;28;20489;-58
2022/04/16 04:51:36;;;;;;;24.43;19.00;;;2.80;99.90;;;;;;5079110;28;20496;-59
2022/04/16 04:54:07;;;;;;;26.67;19.07;;;2.80;99.90;;;;;;5079585;28;21008;-59
2022/04/16 04:56:37;;;;;;;26.70;19.07;;;2.80;99.90;;;;;;5078772;28;20511;-59
2022/04/16 04:59:08;;;;;;;24.77;20.40;;;2.90;99.90;;;;;;5078867;28;20466;-58
2022/04/16 05:01:35;;;;;;;25.63;19.33;;;2.80;99.90;;;;;;5079447;28;20472;-59
2022/04/16 05:04:13;;;;;;;24.63;19.37;;;2.80;43.00;;;;;;5078400;28;20590;-59
2022/04/16 05:06:47;;;;;;;24.90;19.10;;;2.80;1.00;;;;;;5078446;28;20492;-60
2022/04/16 05:09:18;;;;;;;21.60;19.30;;;2.90;30.00;;;;;;5079524;28;20746;-59
2022/04/16 05:11:45;;;;;;;21.50;18.63;;;2.90;88.70;;;;;;5079432;28;20465;-60
2022/04/16 05:14:16;;;;;;;25.00;18.73;;;2.90;38.80;;;;;;5078471;28;20579;-60
2022/04/16 05:16:45;;;;;;;22.97;19.23;;;3.00;1.00;;;;;;5077841;28;20461;-59
2022/04/16 05:19:22;;;;;;;23.67;18.20;;;3.00;1.00;;;;;;5078412;28;20884;-60
2022/04/16 05:21:51;;;;;;;27.80;19.17;;;3.10;44.90;;;;;;5079298;28;20461;-60
2022/04/16 05:24:21;;;;;;;28.37;20.33;;;3.20;99.90;;;;;;5079082;28;20457;-59
2022/04/16 05:26:48;;;;;;;23.43;19.37;;;3.20;99.90;;;;;;5078198;28;20461;-60
2022/04/16 05:29:17;;;;;;;26.03;20.33;;;3.30;99.90;;;;;;5078091;28;20585;-60
2022/04/16 05:31:44;;;;;;;27.80;21.20;;;3.30;99.90;;;;;;5078195;28;20462;-60
2022/04/16 05:34:20;;;;;;;29.23;21.63;;;3.40;99.90;;;;;;5078775;28;20948;-59
2022/04/16 05:36:50;;;;;;;29.20;23.43;;;3.40;99.90;;;;;;5078679;28;20862;-60
2022/04/16 05:39:20;;;;;;;33.10;23.37;;;3.50;99.90;;;;;;5077967;28;20466;-60
2022/04/16 05:41:47;;;;;;;32.80;24.40;;;3.70;99.90;;;;;;5078631;28;20519;-60
2022/04/16 05:44:18;;;;;;;28.03;22.70;;;3.80;99.90;;;;;;5077911;28;20834;-60
2022/04/16 05:46:57;;;;;;;34.67;25.27;;;3.90;99.90;;;;;;5078359;28;20918;-60
2022/04/16 05:49:25;;;;;;;30.57;23.77;;;4.00;99.90;;;;;;5077874;28;20869;-59
2022/04/16 05:51:56;;;;;;;24.80;21.17;;;4.20;99.90;;;;;;5078704;28;20472;-59
2022/04/16 05:54:25;;;;;;;30.03;22.77;;;4.20;99.90;;;;;;5077890;28;20921;-60
2022/04/16 05:56:57;;;;;;;33.47;23.97;;;4.30;99.90;;;;;;5077940;28;20457;-60
2022/04/16 05:59:26;;;;;;;36.53;28.30;;;4.40;99.90;;;;;;5077815;28;20472;-60
2022/04/16 06:01:57;;;;;;;48.30;33.20;;;4.60;99.90;;;;;;5078030;28;20464;-60
2022/04/16 06:04:23;;;;;;;48.63;33.10;;;5.00;99.90;;;;;;5077706;28;20515;-61
2022/04/16 06:06:51;;;;;;;47.17;35.40;;;5.30;99.90;;;;;;5077761;28;20519;-60
2022/04/16 06:09:20;;;;;;;46.30;33.67;;;5.50;99.90;;;;;;5077135;28;20493;-61
2022/04/16 06:11:51;;;;;;;45.13;35.10;;;5.70;99.90;;;;;;5078233;28;20564;-61
2022/04/16 06:14:23;;;;;;;43.57;33.70;;;5.90;99.90;;;;;;5077329;28;20885;-61
2022/04/16 06:16:50;;;;;;;45.87;33.10;;;6.20;99.90;;;;;;5077819;28;20460;-61
2022/04/16 06:19:19;;;;;;;38.70;30.43;;;6.50;99.90;;;;;;5077573;28;20461;-61
2022/04/16 06:21:46;;;;;;;38.00;28.90;;;6.70;99.90;;;;;;5077194;28;20508;-61
2022/04/16 06:24:13;;;;;;;38.60;28.60;;;6.90;99.90;;;;;;5077832;28;20457;-61
2022/04/16 06:26:42;;;;;;;37.63;27.90;;;7.20;99.90;;;;;;5076390;28;20472;-61
2022/04/16 06:29:09;;;;;;;34.17;27.60;;;7.30;99.90;;;;;;5075524;28;20469;-61
2022/04/16 06:31:36;;;;;;;33.37;25.83;;;7.60;99.90;;;;;;5077607;28;20465;-61
2022/04/16 06:34:03;;;;;;;30.97;26.20;;;7.90;99.90;;;;;;5077241;28;20554;-61
2022/04/16 06:36:37;;;;;;;32.90;26.33;;;8.00;99.90;;;;;;5077491;28;20461;-61
2022/04/16 06:39:05;;;;;;;27.50;23.50;;;8.20;99.90;;;;;;5076984;28;20454;-60
2022/04/16 06:41:32;;;;;;;28.43;22.67;;;8.50;99.90;;;;;;5076780;28;20492;-61
2022/04/16 06:44:02;;;;;;;23.87;21.17;;;8.70;99.90;;;;;;5077624;28;20457;-61
2022/04/16 06:46:35;;;;;;;25.57;21.83;;;8.90;99.90;;;;;;5077282;28;20958;-61
2022/04/16 06:49:06;;;;;;;23.80;20.83;;;9.20;99.90;;;;;;5077412;28;20458;-60
2022/04/16 06:51:33;;;;;;;25.90;22.07;;;9.60;99.90;;;;;;5076561;28;20461;-60
2022/04/16 06:54:02;;;;;;;27.10;22.63;;;9.90;99.90;;;;;;5077404;28;20483;-60
2022/04/16 06:56:29;;;;;;;23.50;21.10;;;10.00;1.00;;;;;;5077367;28;20465;-59
2022/04/16 06:58:56;;;;;;;24.47;21.83;;;10.10;99.90;;;;;;5076780;28;20504;-60
2022/04/16 07:01:28;;;;;;;24.77;22.17;;;10.40;99.90;;;;;;5075238;28;20515;-60
2022/04/16 07:04:00;;;;;;;22.93;20.53;;;10.40;99.90;;;;;;5075858;28;20457;-59
2022/04/16 07:06:29;;;;;;;26.13;22.43;;;10.50;99.90;;;;;;5076179;28;20465;-59
2022/04/16 07:08:56;;;;;;;26.27;23.30;;;10.70;75.70;;;;;;5075973;28;20461;-59
2022/04/16 07:11:22;;;;;;;25.60;23.00;;;11.00;13.60;;;;;;5075928;28;20506;-60
2022/04/16 07:13:49;;;;;;;23.97;21.40;;;10.90;1.00;;;;;;5076666;28;20518;-59
2022/04/16 07:16:18;;;;;;;24.63;22.10;;;10.90;1.00;;;;;;5075876;28;20484;-59
2022/04/16 07:18:46;;;;;;;22.90;20.53;;;11.10;1.00;;;;;;5076198;28;20535;-59
2022/04/16 07:21:16;;;;;;;23.20;20.80;;;11.90;14.80;;;;;;5076814;28;20552;-59
2022/04/16 07:23:43;;;;;;;24.10;21.50;;;12.10;1.00;;;;;;5076179;28;20894;-59
2022/04/16 07:26:15;;;;;;;23.90;20.60;;;12.40;1.00;;;;;;5076966;28;20912;-59
2022/04/16 07:28:42;;;;;;;21.53;19.33;;;12.60;1.00;;;;;;5076701;28;20502;-59
2022/04/16 07:31:11;;;;;;;22.13;19.87;;;12.50;1.00;;;;;;5076374;28;20515;-58
2022/04/16 07:33:42;;;;;;;22.50;20.20;;;12.70;1.00;;;;;;5076248;28;20917;-59
2022/04/16 07:36:14;;;;;;;22.50;20.40;;;12.80;1.00;;;;;;5076671;28;20587;-59
2022/04/16 07:38:54;;;;;;;21.73;19.40;;;13.00;1.00;;;;;;5076426;28;20464;-59
2022/04/16 07:41:23;;;;;;;19.73;17.73;;;13.20;1.00;;;;;;5080880;28;20461;-59
2022/04/16 07:43:50;;;;;;;21.47;19.27;;;13.50;1.00;;;;;;5079717;28;20519;-59
2022/04/16 07:46:32;;;;;;;19.40;17.40;;;13.30;1.00;;;;;;5081058;28;20510;-58
2022/04/16 07:48:59;;;;;;;20.23;18.23;;;12.80;1.00;;;;;;5060727;28;20512;-59
2022/04/16 07:51:32;;;;;;;21.20;19.10;;;12.90;1.00;;;;;;5060877;28;20832;-57
2022/04/16 07:54:02;;;;;;;21.43;19.33;;;13.20;1.00;;;;;;5072921;28;20526;-59
2022/04/16 07:56:32;;;;;;;19.57;17.80;;;13.10;1.00;;;;;;5080386;28;20958;-59
2022/04/16 07:59:04;;;;;;;20.50;18.50;;;13.20;1.00;;;;;;5079942;28;20461;-59
2022/04/16 08:01:34;;;;;;;19.40;17.50;;;13.50;1.00;;;;;;5080253;28;20460;-59
2022/04/16 08:04:02;;;;;;;20.97;18.47;;;14.30;1.00;;;;;;5079668;28;20506;-60
2022/04/16 08:06:31;;;;;;;19.93;18.03;;;14.80;1.00;;;;;;5080109;28;20578;-59
2022/04/16 08:09:01;;;;;;;17.87;16.10;;;14.90;1.00;;;;;;5080011;28;20461;-59
2022/04/16 08:11:32;;;;;;;18.57;16.87;;;15.40;1.00;;;;;;5080328;28;20466;-59
2022/04/16 08:13:59;;;;;;;18.00;16.27;;;15.50;1.00;;;;;;5079744;28;20457;-59
2022/04/16 08:16:28;;;;;;;17.20;15.50;;;15.60;99.90;;;;;;5079560;28;20488;-60
2022/04/16 08:18:57;;;;;;;17.80;16.10;;;15.80;99.90;;;;;;5079840;28;20468;-60
2022/04/16 08:21:25;;;;;;;15.30;13.80;;;15.50;99.90;;;;;;5079479;28;20754;-59
2022/04/16 08:24:13;;;;;;;15.77;14.27;;;15.50;99.90;;;;;;5080521;28;20484;-59
2022/04/16 08:26:40;;;;;;;16.03;14.53;;;14.00;99.90;;;;;;5079062;28;20774;-60
2022/04/16 08:29:10;;;;;;;14.67;13.37;;;13.50;99.90;;;;;;5079738;28;20461;-60
2022/04/16 08:31:46;;;;;;;14.60;13.10;;;13.70;1.00;;;;;;5079669;28;20820;-60
2022/04/16 08:34:13;;;;;;;12.80;11.57;;;13.80;99.90;;;;;;5079968;28;20951;-58
2022/04/16 08:36:40;;;;;;;10.90;9.80;;;13.50;99.90;;;;;;5078588;28;20528;-59
2022/04/16 08:39:08;;;;;;;11.73;10.53;;;13.30;99.90;;;;;;5079842;28;20747;-59
2022/04/16 08:41:39;;;;;;;12.50;11.30;;;13.10;99.90;;;;;;5079453;28;20497;-60
2022/04/16 08:44:08;;;;;;;13.70;12.30;;;13.20;99.90;;;;;;5079478;28;20534;-59
2022/04/16 08:46:37;;;;;;;16.43;13.80;;;13.20;99.90;;;;;;5079484;28;20454;-60
2022/04/16 08:49:04;;;;;;;11.70;10.60;;;13.40;99.90;;;;;;5079497;28;20468;-60
2022/04/16 08:51:31;;;;;;;12.90;11.60;;;14.20;99.90;;;;;;5077985;28;20462;-60
2022/04/16 08:53:58;;;;;;;12.50;11.40;;;14.30;99.90;;;;;;5079560;28;20873;-60
2022/04/16 08:56:35;;;;;;;13.00;11.73;;;14.10;99.90;;;;;;5079935;28;20921;-59
2022/04/16 08:59:09;;;;;;;10.83;9.70;;;13.40;99.90;;;;;;5078613;28;20959;-59
2022/04/16 09:01:36;;;;;;;9.40;8.43;;;13.10;99.90;;;;;;5079400;28;20466;-59
2022/04/16 09:04:06;;;;;;;10.20;9.20;;;13.00;99.90;;;;;;5079380;28;20461;-59
2022/04/16 09:06:35;;;;;;;12.33;9.17;;;13.10;99.90;;;;;;5078657;28;20510;-59
2022/04/16 09:09:13;;;;;;;9.30;8.40;;;13.10;99.90;;;;;;5078239;28;20461;-59
2022/04/16 09:11:57;;;;;;;10.13;7.70;;;13.10;99.90;;;;;;5079418;28;20468;-59
2022/04/16 09:14:34;;;;;;;8.77;7.87;;;13.10;99.90;;;;;;5077093;28;20461;-60
2022/04/16 09:17:08;;;;;;;8.90;8.00;;;13.50;99.90;;;;;;5078990;28;20493;-60
2022/04/16 09:19:46;;;;;;;9.40;8.50;;;13.30;99.90;;;;;;5078218;28;20867;-60
2022/04/16 09:22:14;;;;;;;9.93;9.03;;;13.90;99.90;;;;;;5078317;28;20866;-61
2022/04/16 09:24:55;;;;;;;10.50;9.50;;;14.80;99.90;;;;;;5076593;28;20511;-61
2022/04/16 09:27:27;;;;;;;10.83;9.83;;;15.60;99.90;;;;;;5077199;28;20783;-60
2022/04/16 09:29:56;;;;;;;10.30;9.30;;;15.40;99.90;;;;;;5077092;28;20465;-59
2022/04/16 09:32:28;;;;;;;10.50;9.40;;;14.70;99.90;;;;;;5077968;28;20547;-59
2022/04/16 09:34:56;;;;;;;9.80;8.90;;;15.00;99.90;;;;;;5077959;28;20465;-61
2022/04/16 09:37:26;;;;;;;10.40;9.50;;;14.50;99.90;;;;;;5078189;28;20816;-61
2022/04/16 09:39:56;;;;;;;11.00;10.00;;;14.40;99.90;;;;;;5078033;28;20507;-60
2022/04/16 09:42:29;;;;;;;9.83;8.87;;;14.80;99.90;;;;;;5078365;28;20515;-60
2022/04/16 09:45:02;;;;;;;11.27;10.27;;;15.70;99.90;;;;;;5077859;28;20457;-61
2022/04/16 09:47:35;;;;;;;10.03;9.13;;;16.40;99.90;;;;;;5077722;28;20492;-60
2022/04/16 09:50:07;;;;;;;11.40;10.03;;;16.20;99.90;;;;;;5077668;28;20546;-61
2022/04/16 09:52:38;;;;;;;10.40;8.80;;;16.40;99.90;;;;;;5077714;28;20479;-60
2022/04/16 09:55:09;;;;;;;10.50;9.60;;;16.50;99.90;;;;;;5076476;28;20461;-61
2022/04/16 09:57:41;;;;;;;10.77;9.87;;;17.10;99.90;;;;;;5077774;28;20457;-61
2022/04/16 10:00:09;;;;;;;9.33;8.53;;;17.20;99.90;;;;;;5077566;28;20817;-60
2022/04/16 10:02:40;;;;;;;9.50;8.70;;;17.40;99.90;;;;;;5075010;28;20526;-61
2022/04/16 10:05:09;;;;;;;10.20;9.30;;;17.80;99.90;;;;;;5076098;28;20893;-61
2022/04/16 10:07:38;;;;;;;10.80;9.80;;;15.90;99.90;;;;;;5078237;28;20461;-61
2022/04/16 10:10:17;;;;;;;10.73;9.77;;;16.20;99.90;;;;;;5075841;28;20454;-61
2022/04/16 10:13:01;;;;;;;10.17;9.27;;;15.50;99.90;;;;;;5057833;28;20951;-61
2022/04/16 10:15:54;;;;;;;10.33;9.43;;;15.00;99.90;;;;;;5065696;28;20492;-60
2022/04/16 10:18:23;;;;;;;8.50;7.63;;;15.10;99.90;;;;;;5058019;28;20458;-61
2022/04/16 10:20:56;;;;;;;10.17;9.37;;;14.50;99.90;;;;;;5059395;28;20464;-61
2022/04/16 10:23:32;;;;;;;11.10;9.20;;;14.30;99.90;;;;;;5078701;28;20939;-60
2022/04/16 10:26:09;;;;;;;9.53;8.57;;;14.70;99.90;;;;;;5082329;28;20452;-59
2022/04/16 10:28:42;;;;;;;9.23;8.33;;;16.00;99.90;;;;;;5089651;28;20457;-61
2022/04/16 10:31:52;;;;;;;9.87;8.93;;;16.90;99.90;;;;;;5074876;28;20512;-59
2022/04/16 10:34:34;;;;;;;8.77;7.97;;;17.40;99.90;;;;;;5027538;28;20461;-61
2022/04/16 10:37:08;;;;;;;9.20;8.33;;;17.50;99.90;;;;;;5076242;28;20496;-61
2022/04/16 10:39:44;;;;;;;10.17;9.17;;;17.80;99.90;;;;;;5057822;28;20462;-60
2022/04/16 10:42:21;;;;;;;8.77;7.87;;;17.50;99.90;;;;;;5063535;28;20524;-61
2022/04/16 10:45:06;;;;;;;10.83;9.93;;;18.30;99.90;;;;;;5077565;28;20465;-60
2022/04/16 10:47:37;;;;;;;9.90;8.90;;;18.40;99.90;;;;;;5074968;28;20461;-61
2022/04/16 10:50:15;;;;;;;10.30;9.40;;;18.00;99.90;;;;;;5074644;28;20473;-60
2022/04/16 10:52:54;;;;;;;9.33;8.53;;;18.10;99.90;;;;;;5075760;28;20952;-61
2022/04/16 10:55:30;;;;;;;8.90;8.20;;;17.60;99.90;;;;;;5076666;28;20957;-61
2022/04/16 10:58:01;;;;;;;9.63;8.83;;;17.50;99.90;;;;;;5073511;28;20463;-60
2022/04/16 11:00:42;;;;;;;8.10;7.40;;;17.70;99.90;;;;;;5075363;28;20913;-61
2022/04/16 11:03:17;;;;;;;9.43;8.53;;;17.50;99.90;;;;;;5074486;28;20487;-59
2022/04/16 11:05:45;;;;;;;9.83;8.93;;;18.10;99.90;;;;;;5071492;28;20483;-60
2022/04/16 11:08:17;;;;;;;9.00;8.10;;;18.70;99.90;;;;;;5072589;28;20465;-59
2022/04/16 11:10:44;;;;;;;10.17;9.37;;;18.60;99.90;;;;;;5077049;28;20893;-60
2022/04/16 11:13:21;;;;;;;8.80;8.00;;;18.20;99.90;;;;;;5076071;28;20881;-60
2022/04/16 11:15:52;;;;;;;8.60;7.90;;;18.00;99.90;;;;;;5076364;28;20495;-60
2022/04/16 11:18:19;;;;;;;8.80;8.00;;;18.30;99.90;;;;;;5075404;28;20511;-60
2022/04/16 11:23:47;;;;;;;8.90;8.10;;;18.50;99.90;;;;;;5073045;28;20478;-59
2022/04/16 11:34:58;;;;;;;8.20;7.43;;;18.20;99.90;;;;;;5075202;28;20579;-60
2022/04/16 11:40:09;;;;;;;8.07;7.37;;;18.00;99.90;;;;;;5075605;28;20839;-60
2022/04/16 11:42:42;;;;;;;7.97;7.17;;;18.30;99.90;;;;;;5075389;28;20527;-60
2022/04/16 11:45:10;;;;;;;7.93;7.17;;;17.90;99.90;;;;;;5075475;28;20464;-61
2022/04/16 11:47:42;;;;;;;6.87;6.27;;;18.40;99.90;;;;;;5076274;28;20556;-60
2022/04/16 11:50:13;;;;;;;6.83;6.13;;;18.20;99.90;;;;;;5075336;28;20777;-61
2022/04/16 11:52:49;;;;;;;7.30;6.70;;;18.70;99.90;;;;;;5075539;28;20910;-60
2022/04/16 11:55:19;;;;;;;6.80;6.20;;;19.30;99.90;;;;;;5075862;28;20460;-61
2022/04/16 11:57:47;;;;;;;7.40;6.80;;;19.20;99.90;;;;;;5090332;28;20549;-61
2022/04/16 12:00:24;;;;;;;7.10;6.50;;;19.20;99.90;;;;;;5077599;28;20511;-60
2022/04/16 12:02:57;;;;;;;7.37;6.77;;;19.40;99.90;;;;;;5075159;28;20495;-60
2022/04/16 12:05:30;;;;;;;6.40;5.80;;;19.40;99.90;;;;;;5075469;28;20556;-61
2022/04/16 12:08:00;;;;;;;6.90;6.30;;;19.50;99.90;;;;;;5076609;28;20445;-61
2022/04/16 12:10:28;;;;;;;6.73;6.13;;;19.60;99.90;;;;;;5075619;28;20465;-60
2022/04/16 12:12:56;;;;;;;7.07;6.47;;;19.70;99.90;;;;;;5074657;28;20471;-60
2022/04/16 12:15:26;;;;;;;6.33;5.73;;;19.90;99.90;;;;;;5074372;28;20462;-61
2022/04/16 12:17:55;;;;;;;6.23;5.63;;;19.50;99.90;;;;;;5074777;28;20558;-60
2022/04/16 12:20:29;;;;;;;6.60;6.00;;;19.20;99.90;;;;;;5075361;28;20461;-61
2022/04/16 12:22:59;;;;;;;5.80;5.30;;;19.60;99.90;;;;;;5076643;28;20503;-61
2022/04/16 12:25:26;;;;;;;5.63;5.13;;;19.90;99.90;;;;;;5077445;28;20743;-61
2022/04/16 12:28:00;;;;;;;5.80;5.33;;;20.40;99.90;;;;;;5079066;28;20457;-61
2022/04/16 12:30:31;;;;;;;5.90;5.40;;;20.20;99.90;;;;;;5079331;28;20534;-60
2022/04/16 12:33:04;;;;;;;5.20;4.80;;;20.50;99.90;;;;;;5079174;28;20560;-61
2022/04/16 12:35:40;;;;;;;5.30;4.90;;;20.10;99.90;;;;;;5080242;28;20518;-61
2022/04/16 12:38:07;;;;;;;5.13;4.43;;;20.80;99.90;;;;;;5079065;28;20848;-60
2022/04/16 12:40:36;;;;;;;5.70;5.20;;;20.00;99.90;;;;;;5079353;28;20458;-60
2022/04/16 12:43:04;;;;;;;5.67;5.17;;;19.90;99.90;;;;;;5079887;28;20462;-61
2022/04/16 12:45:31;;;;;;;5.00;4.53;;;19.60;99.90;;;;;;5079933;28;20461;-60
2022/04/16 12:47:59;;;;;;;4.90;4.50;;;19.60;99.90;;;;;;5079111;28;20497;-60
2022/04/16 12:50:31;;;;;;;4.90;4.50;;;19.50;99.90;;;;;;5079785;28;20515;-61
2022/04/16 12:53:04;;;;;;;5.20;4.73;;;20.10;99.90;;;;;;5079055;28;20776;-60
2022/04/16 12:55:31;;;;;;;5.70;5.00;;;20.10;99.90;;;;;;5080156;28;20461;-60
2022/04/16 12:57:59;;;;;;;6.07;4.60;;;20.10;99.90;;;;;;5077422;28;20489;-60
2022/04/16 13:00:29;;;;;;;4.43;4.13;;;20.30;99.90;;;;;;5078317;28;20488;-61
2022/04/16 13:03:07;;;;;;;6.20;4.17;;;20.20;99.90;;;;;;5073282;28;20461;-61
2022/04/16 13:05:41;;;;;;;5.57;5.00;;;19.60;99.90;;;;;;5078756;28;20920;-61
2022/04/16 13:08:11;;;;;;;4.20;3.80;;;19.80;99.90;;;;;;5077522;28;20917;-60
2022/04/16 13:10:40;;;;;;;5.53;4.20;;;20.40;99.90;;;;;;5077735;28;20461;-58
2022/04/16 13:13:15;;;;;;;4.20;3.90;;;20.60;99.90;;;;;;5078296;28;20523;-60
2022/04/16 13:15:44;;;;;;;4.70;4.30;;;20.50;99.90;;;;;;5079632;28;20461;-59
2022/04/16 13:18:12;;;;;;;5.43;4.20;;;20.10;99.90;;;;;;5078835;28;20474;-59
2022/04/16 13:20:42;;;;;;;5.70;4.40;;;20.20;99.90;;;;;;5079535;28;20519;-59
2022/04/16 13:23:13;;;;;;;7.23;4.50;;;20.20;99.90;;;;;;5079525;28;20462;-61
2022/04/16 13:25:40;;;;;;;4.50;4.10;;;19.70;99.90;;;;;;5079670;28;20564;-60